Map

Track Data

SID SEASON NUMBER BASIN SUBBASIN NAME ISO_TIME NATURE LAT LON WMO_WIND WMO_PRES WMO_AGENCY TRACK_TYPE DIST2LAND LANDFALL IFLAG USA_AGENCY USA_ATCF_ID USA_LAT USA_LON USA_RECORD USA_STATUS USA_WIND USA_PRES USA_SSHS USA_R34_NE USA_R34_SE USA_R34_SW USA_R34_NW USA_R50_NE USA_R50_SE USA_R50_SW USA_R50_NW USA_R64_NE USA_R64_SE USA_R64_SW USA_R64_NW USA_POCI USA_ROCI USA_RMW USA_EYE TOKYO_LAT TOKYO_LON TOKYO_GRADE TOKYO_WIND TOKYO_PRES TOKYO_R50_DIR TOKYO_R50_LONG TOKYO_R50_SHORT TOKYO_R30_DIR TOKYO_R30_LONG TOKYO_R30_SHORT TOKYO_LAND CMA_LAT CMA_LON CMA_CAT CMA_WIND CMA_PRES HKO_LAT HKO_LON HKO_CAT HKO_WIND HKO_PRES NEWDELHI_LAT NEWDELHI_LON NEWDELHI_GRADE NEWDELHI_WIND NEWDELHI_PRES NEWDELHI_CI NEWDELHI_DP NEWDELHI_POCI REUNION_LAT REUNION_LON REUNION_TYPE REUNION_WIND REUNION_PRES REUNION_TNUM REUNION_CI REUNION_RMW REUNION_R34_NE REUNION_R34_SE REUNION_R34_SW REUNION_R34_NW REUNION_R50_NE REUNION_R50_SE REUNION_R50_SW REUNION_R50_NW REUNION_R64_NE REUNION_R64_SE REUNION_R64_SW REUNION_R64_NW BOM_LAT BOM_LON BOM_TYPE BOM_WIND BOM_PRES BOM_TNUM BOM_CI BOM_RMW BOM_R34_NE BOM_R34_SE BOM_R34_SW BOM_R34_NW BOM_R50_NE BOM_R50_SE BOM_R50_SW BOM_R50_NW BOM_R64_NE BOM_R64_SE BOM_R64_SW BOM_R64_NW BOM_ROCI BOM_POCI BOM_EYE BOM_POS_METHOD BOM_PRES_METHOD NADI_LAT NADI_LON NADI_CAT NADI_WIND NADI_PRES WELLINGTON_LAT WELLINGTON_LON WELLINGTON_WIND WELLINGTON_PRES DS824_LAT DS824_LON DS824_STAGE DS824_WIND DS824_PRES TD9636_LAT TD9636_LON TD9636_STAGE TD9636_WIND TD9636_PRES TD9635_LAT TD9635_LON TD9635_WIND TD9635_PRES TD9635_ROCI NEUMANN_LAT NEUMANN_LON NEUMANN_CLASS NEUMANN_WIND NEUMANN_PRES MLC_LAT MLC_LON MLC_CLASS MLC_WIND MLC_PRES USA_GUST BOM_GUST BOM_GUST_PER REUNION_GUST REUNION_GUST_PER USA_SEAHGT USA_SEARAD_NE USA_SEARAD_SE USA_SEARAD_SW USA_SEARAD_NW STORM_SPEED STORM_DIR
1956052S12065 1956 20 SI MM NOT_NAMED 1956-02-20 18:00:00 TS -11.5000 65.2000 main 1252 1237 O________OO___ jtwc_sh SH231956 -11.5000 65.2000 -1 -11.5000 65.2000 TC -11.5000 65.2000 7 3 225
1956052S12065 1956 20 SI MM NOT_NAMED 1956-02-20 21:00:00 TS -11.5931 65.1069 main 1237 1221 P________PP___ SH231956 -11.5850 65.1050 -1 -11.5850 65.1050 TC -11.6094 65.1108 7 3 223
1956052S12065 1956 20 SI MM NOT_NAMED 1956-02-21 00:00:00 TS -11.7117 65.0024 main 1221 1197 O________OP___ jtwc_sh SH231956 -11.7000 65.0000 -1 -11.7000 65.0000 TC -11.7350 65.0072 7 4 219
1956052S12065 1956 20 SI MM NOT_NAMED 1956-02-21 03:00:00 TS -11.8777 64.8733 main 1197 1166 P________PP___ SH231956 -11.8700 64.8724 -1 -11.8700 64.8724 TC -11.8931 64.8751 7 5 217
1956052S12065 1956 20 SI MM NOT_NAMED 1956-02-21 06:00:00 TS -12.1000 64.7000 main 1166 1126 O________OO___ jtwc_sh SH231956 -12.1000 64.7000 -1 -12.1000 64.7000 TC 35 -12.1000 64.7000 2 6 218
1956052S12065 1956 20 SI MM NOT_NAMED 1956-02-21 09:00:00 TS -12.3828 64.4770 main 1126 1079 P________PP___ SH231956 -12.3925 64.4800 -1 -12.3925 64.4800 TC 35 -12.3634 64.4709 2 8 220
1956052S12065 1956 20 SI MM NOT_NAMED 1956-02-21 12:00:00 TS -12.6858 64.1968 main 1079 1041 O________OP___ jtwc_sh SH231956 -12.7000 64.2000 -1 -12.7000 64.2000 TC 35 -12.6574 64.1904 2 8 226
1956052S12065 1956 20 SI MM NOT_NAMED 1956-02-21 15:00:00 TS -12.9642 63.8699 main 1033 988 P________PP___ SH231956 -12.9725 63.8725 -1 -12.9725 63.8725 TC 35 -12.9477 63.8646 2 9 233
1956052S12065 1956 20 SI MM NOT_NAMED 1956-02-21 18:00:00 TS -13.2000 63.5000 main 988 944 O________OO___ jtwc_sh SH231956 -13.2000 63.5000 -1 -13.2000 63.5000 TC 35 -13.2000 63.5000 2 8 241
1956052S12065 1956 20 SI MM NOT_NAMED 1956-02-21 21:00:00 TS -13.3737 63.1149 main 944 910 P________PP___ SH231956 -13.3724 63.1149 -1 -13.3724 63.1149 TC 30 -13.3762 63.1148 2 8 249
1956052S12065 1956 20 SI MM NOT_NAMED 1956-02-22 00:00:00 TS -13.5033 62.6982 main 910 876 O________OP___ jtwc_sh SH231956 -13.5000 62.7000 -1 -13.5000 62.7000 TC 25 -13.5100 62.6947 2 9 254
1956052S12065 1956 20 SI MM NOT_NAMED 1956-02-22 03:00:00 TS -13.6095 62.2557 main 876 838 P________PP___ SH231956 -13.6075 62.2574 -1 -13.6075 62.2574 TC 25 -13.6137 62.2523 2 9 257
1956052S12065 1956 20 SI MM NOT_NAMED 1956-02-22 06:00:00 TS -13.7000 61.8000 main 838 807 O________OO___ jtwc_sh SH231956 -13.7000 61.8000 -1 -13.7000 61.8000 TC 25 -13.7000 61.8000 1 9 257
1956052S12065 1956 20 SI MM NOT_NAMED 1956-02-22 09:00:00 TS -13.8081 61.3565 main 807 772 P________PP___ SH231956 -13.8074 61.3500 -1 -13.8074 61.3500 TC 25 -13.8093 61.3694 1 9 257
1956052S12065 1956 20 SI MM NOT_NAMED 1956-02-22 12:00:00 TS -13.9007 60.9101 main 772 744 O________OP___ jtwc_sh SH231956 -13.9000 60.9000 -1 -13.9000 60.9000 TC 25 -13.9020 60.9302 1 9 259
1956052S12065 1956 20 SI MM NOT_NAMED 1956-02-22 15:00:00 TS -13.9711 60.4686 main 744 725 P________PP___ SH231956 -13.9723 60.4650 -1 -13.9723 60.4650 TC 25 -13.9686 60.4758 1 9 264
1956052S12065 1956 20 SI MM NOT_NAMED 1956-02-22 18:00:00 TS -14.0000 60.0000 main 725 708 O________OO___ jtwc_sh SH231956 -14.0000 60.0000 -1 -14.0000 60.0000 TC 25 -14.0000 60.0000 1 10 270
1956052S12065 1956 20 SI MM NOT_NAMED 1956-02-22 21:00:00 TS -13.9721 59.4622 main 708 700 P________PP___ SH231956 -13.9650 59.4574 -1 -13.9650 59.4574 TC 25 -13.9862 59.4719 1 11 275
1956052S12065 1956 20 SI MM NOT_NAMED 1956-02-23 00:00:00 TS -13.9126 58.9090 main 705 697 O________OP___ jtwc_sh SH231956 -13.9000 58.9000 -1 -13.9000 58.9000 TC 25 -13.9378 58.9271 1 11 276
1956052S12065 1956 20 SI MM NOT_NAMED 1956-02-23 03:00:00 TS -13.8568 58.3829 main 697 697 P________PP___ SH231956 -13.8499 58.3775 -1 -13.8499 58.3775 TC 25 -13.8706 58.3938 1 9 281
1956052S12065 1956 20 SI MM NOT_NAMED 1956-02-23 06:00:00 TS -13.7385 58.0000 reunion main 716 716 O____O___OO___ jtwc_sh SH231956 -13.8000 57.9000 -1 -13.0000 59.2000 99 9.90000 -13.8000 57.9000 TC 25 -13.8000 57.9000 1 8 287
1956052S12065 1956 20 SI MM NOT_NAMED 1956-02-23 09:00:00 TS -13.6407 57.6396 main 727 727 P____P___PP___ SH231956 -13.7499 57.4775 -1 -13.0029 58.6112 99 -13.7499 57.4775 TC 25 -13.7414 57.4779 1 7 285
1956052S12065 1956 20 SI MM NOT_NAMED 1956-02-23 12:00:00 TS -13.5572 57.2850 main 727 715 O____P___OP___ jtwc_sh SH231956 -13.7000 57.1000 -1 -13.0069 58.0282 99 -13.7000 57.1000 TC 25 -13.6844 57.0975 1 7 283
1956052S12065 1956 20 SI MM NOT_NAMED 1956-02-23 15:00:00 TS -13.4837 56.9215 main 715 674 P____P___PP___ SH231956 -13.6424 56.7425 -1 -13.0147 57.4574 99 -13.6424 56.7425 TC 25 -13.6352 56.7434 1 7 278
1956052S12065 1956 20 SI MM NOT_NAMED 1956-02-23 18:00:00 TS -13.4572 56.5262 main 674 632 O____P___OO___ jtwc_sh SH231956 -13.6000 56.4000 -1 -13.0286 56.9049 99 -13.6000 56.4000 TC 25 -13.6000 56.4000 1 8 272
1956052S12065 1956 20 SI MM NOT_NAMED 1956-02-23 21:00:00 TS -13.4555 56.1269 main 632 602 P____P___PP___ SH231956 -13.5925 56.0500 -1 -13.0514 56.3768 99 -13.5925 56.0500 TC 25 -13.5855 56.0308 1 8 269
1956052S12065 1956 20 SI MM NOT_NAMED 1956-02-24 00:00:00 TS -13.4677 55.7374 main 591 561 O____P___OP___ jtwc_sh SH231956 -13.6000 55.7000 -1 -13.0858 55.8793 99 -13.6000 55.7000 TC 25 -13.5849 55.6702 1 8 268
1956052S12065 1956 20 SI MM NOT_NAMED 1956-02-24 03:00:00 TS -13.4816 55.3532 main 561 520 P____P___PP___ SH231956 -13.6000 55.3350 -1 -13.1344 55.4183 99 -13.6000 55.3350 TC 25 -13.5918 55.3245 1 7 267
1956052S12065 1956 20 SI MM NOT_NAMED 1956-02-24 06:00:00 TS -13.5000 55.0000 reunion main 520 491 O____O___OO___ jtwc_sh SH231956 -13.6000 55.0000 -1 -13.2000 55.0000 99 9.90000 -13.6000 55.0000 TC 25 -13.6000 55.0000 1 6 267
1956052S12065 1956 20 SI MM NOT_NAMED 1956-02-24 09:00:00 TS -13.5170 54.7040 main 491 461 P____P___PP___ SH231956 -13.5999 54.7425 -1 -13.2848 54.6279 99 -13.5999 54.7425 TC 25 -13.5835 54.7033 1 6 266
1956052S12065 1956 20 SI MM NOT_NAMED 1956-02-24 12:00:00 TS -13.5397 54.4309 main 461 437 O____P___OP___ jtwc_sh SH231956 -13.6000 54.5000 -1 -13.3890 54.2962 99 -13.6000 54.5000 TC 25 -13.5697 54.4273 1 6 264
1956052S12065 1956 20 SI MM NOT_NAMED 1956-02-24 15:00:00 TS -13.5709 54.1399 main 427 407 P____P___PP___ SH231956 -13.6000 54.2000 -1 -13.5123 53.9968 99 -13.6000 54.2000 TC 25 -13.5711 54.1627 1 6 262
1956052S12065 1956 20 SI MM NOT_NAMED 1956-02-24 18:00:00 TS -13.6136 53.8554 main 407 378 O____P___OO___ jtwc_sh SH231956 -13.6000 53.9000 -1 -13.6543 53.7216 99 -13.6000 53.9000 TC 25 -13.6000 53.9000 1 5 262
1956052S12065 1956 20 SI MM NOT_NAMED 1956-02-24 21:00:00 TS -13.6452 53.6018 main 378 354 P____P___PP___ SH231956 -13.5699 53.6499 -1 -13.8145 53.4625 99 -13.5699 53.6499 TC 25 -13.6263 53.6448 1 5 258
1956052S12065 1956 20 SI MM NOT_NAMED 1956-02-25 00:00:00 TS -13.7199 53.3495 main 345 315 O____P___OP___ jtwc_sh SH231956 -13.6000 53.4000 -1 -13.9926 53.2112 99 -13.6000 53.4000 TC 25 -13.6871 53.3867 1 6 246
1956052S12065 1956 20 SI MM NOT_NAMED 1956-02-25 03:00:00 TS -13.8718 53.0750 main 315 276 P____P___PP___ SH231956 -13.7475 53.1149 -1 -14.1879 52.9598 99 -13.7475 53.1149 TC 30 -13.8044 53.1102 1 7 236
1956052S12065 1956 20 SI MM NOT_NAMED 1956-02-25 06:00:00 TS -14.1000 52.7750 reunion main 276 233 O____O___OO___ jtwc_sh SH231956 -14.0000 52.8000 -1 -14.4000 52.7000 99 9.90000 -14.0000 52.8000 TC 35 -14.0000 52.8000 2 8 229
1956052S12065 1956 20 SI MM NOT_NAMED 1956-02-25 09:00:00 TS -14.3807 52.4628 main 233 180 P____P___PP___ SH231956 -14.3199 52.4724 -1 -14.5910 52.4864 99 -14.3199 52.4724 TC 35 -14.2921 52.4202 2 9 226
1956052S12065 1956 20 SI MM NOT_NAMED 1956-02-25 12:00:00 TS -14.7145 52.1220 main 180 130 O____P___OP___ jtwc_sh SH231956 -14.7000 52.1000 -1 -14.7976 52.2799 99 -14.7000 52.1000 TC 35 -14.6604 52.0082 2 10 226
1956052S12065 1956 20 SI MM NOT_NAMED 1956-02-25 15:00:00 TS -15.0702 51.7276 main 129 96 P____P___PP___ SH231956 -15.0927 51.6277 -1 -15.0222 52.0630 99 -15.0927 51.6277 TC 35 -15.0734 51.5920 2 10 226
1956052S12065 1956 20 SI MM NOT_NAMED 1956-02-25 18:00:00 TS -15.4418 51.3545 main 96 78 O____P___OO___ jtwc_sh SH231956 -15.5000 51.2000 -1 -15.2673 51.8181 99 -15.5000 51.2000 TC 35 -15.5000 51.2000 2 9 219
1956052S12065 1956 20 SI MM NOT_NAMED 1956-02-25 21:00:00 TS -15.8034 51.1204 main 78 72 P____P___PP___ SH231956 -15.8997 50.9920 -1 -15.5353 51.5274 99 -15.8997 50.9920 TC 35 -15.8787 50.9702 2 9 212
1956052S12065 1956 20 SI MM NOT_NAMED 1956-02-26 00:00:00 TS -16.1739 50.8816 main 78 67 O____P___OP___ jtwc_sh SH231956 -16.3000 50.8000 -1 -15.8286 51.1730 99 -16.3000 50.8000 TC 35 -16.2669 50.7534 2 9 216
1956052S12065 1956 20 SI MM NOT_NAMED 1956-02-26 03:00:00 TS -16.5513 50.5514 main 79 33 P____P___PP___ SH231956 -16.6919 50.5044 -1 -16.1495 50.7367 99 -16.6919 50.5044 TC 35 -16.6717 50.4601 2 11 226
1956052S12065 1956 20 SI MM NOT_NAMED 1956-02-26 06:00:00 TS -16.9500 50.0500 reunion main 33 0 O____O___OO___ jtwc_sh SH231956 -17.1000 50.0000 -1 -16.5000 50.2000 99 9.90000 -17.1000 50.0000 TC 35 -17.1000 50.0000 2 15 237
1956052S12065 1956 20 SI MM NOT_NAMED 1956-02-26 09:00:00 TS -17.3742 49.2452 main 0 0 P____P___PP___ SH231956 -17.5353 49.1824 -1 -16.8830 49.3690 99 -17.5353 49.1824 TC 35 -17.5433 49.2470 2 19 243
1956052S12065 1956 20 SI MM NOT_NAMED 1956-02-26 12:00:00 TS -17.8257 48.2845 main 0 0 O____P___OP___ jtwc_sh SH231956 -18.0000 48.2000 -1 -17.2950 48.4156 99 -18.0000 48.2000 TC 35 -18.0079 48.3226 2 21 244
1956052S12065 1956 20 SI MM NOT_NAMED 1956-02-26 15:00:00 TS -18.2977 47.2994 main 0 0 P____P___PP___ SH231956 -18.4848 47.2496 -1 -17.7283 47.3866 99 -18.4848 47.2496 TC 35 -18.4931 47.3118 2 21 243
1956052S12065 1956 20 SI MM NOT_NAMED 1956-02-26 18:00:00 TS -18.7940 46.3074 main 0 0 O____P___OO___ jtwc_sh SH231956 -19.0000 46.3000 -1 -18.1759 46.3297 99 -19.0000 46.3000 TC 35 -19.0000 46.3000 2 21 241
1956052S12065 1956 20 SI MM NOT_NAMED 1956-02-26 21:00:00 TS -19.3155 45.3355 main 0 0 P____P___PP___ SH231956 -19.5421 45.3845 -1 -18.6315 45.2934 99 -19.5421 45.3845 TC 35 -19.5462 45.2795 2 21 240
1956052S12065 1956 20 SI MM NOT_NAMED 1956-02-27 00:00:00 TS -19.8500 44.4047 main 10 10 O____P___OP___ jtwc_sh SH231956 -20.1000 44.5000 -1 -19.0900 44.3266 99 -20.1000 44.5000 TC 35 -20.1101 44.2920 2 20 238
1956052S12065 1956 20 SI MM NOT_NAMED 1956-02-27 03:00:00 TS -20.3866 43.5045 main 61 61 P____P___PP___ SH231956 -20.6654 43.5530 -1 -19.5472 43.4790 99 -20.6654 43.5530 TC 35 -20.6685 43.4330 2 18 235
1956052S12065 1956 20 SI MM NOT_NAMED 1956-02-27 06:00:00 TS -20.9000 42.8000 reunion main 91 91 O____O___OO___ jtwc_sh SH231956 -21.2000 42.8000 -1 -20.0000 42.8000 99 9.90000 -21.2000 42.8000 TC 35 -21.2000 42.8000 2 14 226
1956052S12065 1956 20 SI MM NOT_NAMED 1956-02-27 09:00:00 TS -21.3583 42.4263 main 112 102 P____P___PP___ SH231956 -21.6643 42.3994 -1 -20.4371 42.4332 99 -21.6643 42.3994 TC 35 -21.6676 42.4731 2 10 207
1956052S12065 1956 20 SI MM NOT_NAMED 1956-02-27 12:00:00 TS -21.7974 42.3012 main 102 92 O____P___OP___ jtwc_sh SH231956 -22.1000 42.3000 -1 -20.8782 42.2233 99 -22.1000 42.3000 TC 35 -22.1116 42.3814 2 9 185
1956052S12065 1956 20 SI MM NOT_NAMED 1956-02-27 15:00:00 TS -22.2391 42.3436 main 92 79 P____P___PP___ SH231956 -22.5425 42.3896 -1 -21.3216 42.1461 99 -22.5425 42.3896 TC 35 -22.5499 42.4492 2 9 169
1956052S12065 1956 20 SI MM NOT_NAMED 1956-02-27 18:00:00 TS -22.6914 42.4944 main 84 82 O____P___OO___ jtwc_sh SH231956 -23.0000 42.6000 -1 -21.7655 42.1776 99 -23.0000 42.6000 TC 35 -23.0000 42.6000 2 10 164
1956052S12065 1956 20 SI MM NOT_NAMED 1956-02-27 21:00:00 TS -23.1669 42.6370 main 93 82 P____P___PP___ SH231956 -23.4925 42.7427 -1 -22.2077 42.2934 99 -23.4925 42.7427 TC 35 -23.4749 42.7691 2 9 164
1956052S12065 1956 20 SI MM NOT_NAMED 1956-02-28 00:00:00 TS -23.5767 42.7773 main 82 72 O____P___OP___ jtwc_sh SH231956 -24.0000 42.9000 -1 -22.6458 42.4690 99 -24.0000 42.9000 TC 35 -23.9714 42.9428 2 8 160
1956052S12065 1956 20 SI MM NOT_NAMED 1956-02-28 03:00:00 TS -23.9284 42.9317 main 74 60 P____P___PP___ SH231956 -24.5026 43.0896 -1 -23.0773 42.6797 99 -24.5026 43.0896 TC 35 -24.4822 43.1201 2 6 155
1956052S12065 1956 20 SI MM NOT_NAMED 1956-02-28 06:00:00 TS -24.1429 43.0714 reunion main 60 55 O____O___OO___ jtwc_sh SH231956 -25.0000 43.3000 -1 -23.5000 42.9000 99 9.90000 -25.0000 43.3000 TC 35 -25.0000 43.3000 2 2 84
1956052S12065 1956 20 SI MM NOT_NAMED 1956-02-28 09:00:00 NR -23.9121 43.1091 main 55 42 _____P________ SH231956 -1 -23.9121 43.1091 99 TC 2 3 129
1956052S12065 1956 20 SI MM NOT_NAMED 1956-02-28 12:00:00 NR -24.3144 43.3044 main 46 30 _____P________ -1 -24.3144 43.3044 99 2 9 157
1956052S12065 1956 20 SI MM NOT_NAMED 1956-02-28 15:00:00 NR -24.7084 43.4878 main 32 32 _____P________ -1 -24.7084 43.4878 99 2 8 157
1956052S12065 1956 20 SI MM NOT_NAMED 1956-02-28 18:00:00 NR -25.0953 43.6614 main 32 32 _____P________ -1 -25.0953 43.6614 99 8 158
1956052S12065 1956 20 SI MM NOT_NAMED 1956-02-28 21:00:00 NR -25.4766 43.8272 main 59 53 _____P________ -1 -25.4766 43.8272 99 8 159
1956052S12065 1956 20 SI MM NOT_NAMED 1956-02-29 00:00:00 NR -25.8535 43.9875 main 78 78 _____P________ -1 -25.8535 43.9875 99 8 159
1956052S12065 1956 20 SI MM NOT_NAMED 1956-02-29 03:00:00 NR -26.2276 44.1444 main 104 102 _____P________ -1 -26.2276 44.1444 99 8 159
1956052S12065 1956 20 SI MM NOT_NAMED 1956-02-29 06:00:00 NR -26.6000 44.3000 reunion main 141 _____O________ -1 -26.6000 44.3000 99 9.90000 8 159

About IBTrACS Database

This database is a web-friendly format of International Best Track Archive for Climate Stewardship (IBTrACS), a global best track data archive curated by NOAA dating back to 1842.

Updated: 2021-10-08